Time;durP1;ratioP1;P1;durP2;ratioP2;P2;SDS_P1;SDS_P2;PMS_P1;PMS_P2;Temp;Humidity;BMP_temperature;BMP_pressure;BME280_temperature;BME280_humidity;BME280_pressure;Samples;Min_cycle;Max_cycle;Signal;HPM_P1;HPM_P2
2022/01/06 00:00:58;;;;;;;12.63;5.87;;;1.30;99.90;;;;;;5101796;28;20197;-72
2022/01/06 00:03:26;;;;;;;11.63;5.37;;;1.30;99.90;;;;;;5102123;28;20220;-72
2022/01/06 00:05:53;;;;;;;11.47;6.07;;;1.30;99.90;;;;;;5101180;28;20598;-71
2022/01/06 00:08:21;;;;;;;13.80;6.43;;;1.30;99.90;;;;;;5102196;28;20249;-72
2022/01/06 00:10:49;;;;;;;11.20;5.60;;;1.30;99.90;;;;;;5101295;28;20222;-71
2022/01/06 00:13:24;;;;;;;16.83;6.50;;;1.30;99.90;;;;;;5102124;28;20248;-71
2022/01/06 00:24:00;;;;;;;12.93;6.10;;;1.40;99.90;;;;;;5102395;28;20231;-71
2022/01/06 00:26:27;;;;;;;11.03;5.50;;;1.40;99.90;;;;;;5101382;28;20188;-71
2022/01/06 00:28:53;;;;;;;9.87;6.17;;;1.30;99.90;;;;;;5101820;28;20196;-71
2022/01/06 00:31:20;;;;;;;14.43;6.60;;;1.30;99.90;;;;;;5101181;28;20253;-71
2022/01/06 00:33:47;;;;;;;10.93;6.43;;;1.30;99.90;;;;;;5101909;28;20238;-71
2022/01/06 00:36:14;;;;;;;12.77;6.00;;;1.40;99.90;;;;;;5100842;28;20212;-71
2022/01/06 00:38:40;;;;;;;13.63;7.93;;;1.30;99.90;;;;;;5102972;28;20222;-71
2022/01/06 00:41:08;;;;;;;12.40;7.17;;;1.30;99.90;;;;;;5102859;28;20200;-71
2022/01/06 00:43:35;;;;;;;12.63;7.10;;;1.30;99.90;;;;;;5097240;28;20281;-70
2022/01/06 00:46:01;;;;;;;11.37;6.80;;;1.30;99.90;;;;;;5095874;28;20192;-71
2022/01/06 00:48:28;;;;;;;15.07;6.87;;;1.30;99.90;;;;;;5095665;28;20196;-71
2022/01/06 00:50:55;;;;;;;13.93;7.20;;;1.30;99.90;;;;;;5096067;28;20200;-71
2022/01/06 00:53:21;;;;;;;11.47;6.37;;;1.30;99.90;;;;;;5096276;28;20629;-71
2022/01/06 00:55:48;;;;;;;12.57;6.47;;;1.30;99.90;;;;;;5095825;28;20606;-71
2022/01/06 00:58:16;;;;;;;13.47;7.10;;;1.30;99.90;;;;;;5095857;28;20197;-71
2022/01/06 01:00:43;;;;;;;13.23;7.27;;;1.30;99.90;;;;;;5095826;28;20197;-71
2022/01/06 01:03:12;;;;;;;9.87;6.80;;;1.30;99.90;;;;;;5095183;28;20250;-71
2022/01/06 01:05:39;;;;;;;12.37;7.50;;;1.40;99.90;;;;;;5096512;28;20607;-70
2022/01/06 01:08:06;;;;;;;11.37;7.20;;;1.30;99.90;;;;;;5098142;28;20196;-72
2022/01/06 01:10:33;;;;;;;9.80;6.90;;;1.40;99.90;;;;;;5097241;28;20200;-71
2022/01/06 01:13:00;;;;;;;10.53;6.93;;;1.40;99.90;;;;;;5095604;28;20245;-71
2022/01/06 01:15:31;;;;;;;11.60;7.10;;;1.40;99.90;;;;;;5095098;28;20223;-71
2022/01/06 01:18:05;;;;;;;14.77;7.70;;;1.40;99.90;;;;;;5095525;28;20207;-71
2022/01/06 01:20:33;;;;;;;16.13;7.63;;;1.40;99.90;;;;;;5095406;28;20199;-71
2022/01/06 01:23:00;;;;;;;11.20;7.20;;;1.40;99.90;;;;;;5095226;28;20606;-71
2022/01/06 01:25:27;;;;;;;9.77;7.33;;;1.50;99.90;;;;;;5095230;28;20200;-73
2022/01/06 01:27:55;;;;;;;11.37;6.77;;;1.50;99.90;;;;;;5095012;28;20200;-72
2022/01/06 01:30:29;;;;;;;12.13;6.60;;;1.60;99.90;;;;;;5094884;28;20201;-72
2022/01/06 01:32:59;;;;;;;10.27;6.43;;;1.60;99.90;;;;;;5095244;28;20250;-72
2022/01/06 01:35:31;;;;;;;11.13;5.83;;;1.60;99.90;;;;;;5095191;28;20203;-72
2022/01/06 01:37:58;;;;;;;15.40;7.17;;;1.60;99.90;;;;;;5098252;28;20201;-73
2022/01/06 01:40:25;;;;;;;12.90;7.17;;;1.60;99.90;;;;;;5095035;28;20207;-72
2022/01/06 01:42:51;;;;;;;11.37;7.13;;;1.60;99.90;;;;;;5094585;28;20222;-71
2022/01/06 01:45:19;;;;;;;12.93;7.10;;;1.60;99.90;;;;;;5094853;28;20228;-71
2022/01/06 01:47:45;;;;;;;16.43;7.37;;;1.50;99.90;;;;;;5094533;28;20200;-71
2022/01/06 01:50:16;;;;;;;11.63;6.97;;;1.50;99.90;;;;;;5094598;28;20203;-73
2022/01/06 01:52:45;;;;;;;10.20;7.07;;;1.50;99.90;;;;;;5094716;28;20287;-71
2022/01/06 01:55:14;;;;;;;14.13;7.47;;;1.60;99.90;;;;;;5094486;28;20257;-71
2022/01/06 01:57:41;;;;;;;13.33;7.47;;;1.50;99.90;;;;;;5094587;28;20196;-72
2022/01/06 02:00:11;;;;;;;14.00;8.13;;;1.50;99.90;;;;;;5094569;28;20549;-71
2022/01/06 02:02:38;;;;;;;10.87;7.80;;;1.50;99.90;;;;;;5093332;28;20691;-72
2022/01/06 02:05:05;;;;;;;16.10;8.30;;;1.50;99.90;;;;;;5094134;28;20285;-72
2022/01/06 02:07:35;;;;;;;11.83;8.13;;;1.50;99.90;;;;;;5094352;28;20219;-71
2022/01/06 02:10:04;;;;;;;17.67;8.50;;;1.40;99.90;;;;;;5094308;28;20196;-71
2022/01/06 02:12:35;;;;;;;14.67;7.63;;;1.40;99.90;;;;;;5094321;28;20196;-71
2022/01/06 02:15:02;;;;;;;15.07;8.13;;;1.30;99.90;;;;;;5094316;28;20253;-71
2022/01/06 02:17:28;;;;;;;14.67;9.37;;;1.40;99.90;;;;;;5094268;28;20200;-72
2022/01/06 02:19:57;;;;;;;14.53;8.23;;;1.30;99.90;;;;;;5093994;28;20204;-72
2022/01/06 02:22:24;;;;;;;13.13;8.70;;;1.40;99.90;;;;;;5093838;28;20537;-72
2022/01/06 02:24:51;;;;;;;14.83;8.63;;;1.40;99.90;;;;;;5093950;28;20212;-72
2022/01/06 02:27:20;;;;;;;17.33;9.13;;;1.30;99.90;;;;;;5093847;28;20192;-71
2022/01/06 02:29:47;;;;;;;14.17;9.13;;;1.30;99.90;;;;;;5094108;28;20207;-72
2022/01/06 02:32:16;;;;;;;16.47;9.60;;;1.40;99.90;;;;;;5098216;28;20199;-72
2022/01/06 02:34:43;;;;;;;16.17;9.30;;;1.30;99.90;;;;;;5093636;28;20730;-72
2022/01/06 02:37:11;;;;;;;12.40;8.60;;;1.40;99.90;;;;;;5093638;28;20597;-71
2022/01/06 02:39:38;;;;;;;14.10;10.63;;;1.40;99.90;;;;;;5093927;28;20192;-71
2022/01/06 02:42:06;;;;;;;15.60;8.43;;;1.40;99.90;;;;;;5093616;28;20241;-71
2022/01/06 02:44:33;;;;;;;16.13;9.87;;;1.40;99.90;;;;;;5093633;28;20220;-71
2022/01/06 02:47:00;;;;;;;11.90;8.30;;;1.50;99.90;;;;;;5093643;28;20231;-71
2022/01/06 02:49:27;;;;;;;13.70;9.70;;;1.40;99.90;;;;;;5093499;28;20196;-72
2022/01/06 02:51:53;;;;;;;14.93;9.20;;;1.40;99.90;;;;;;5094296;28;20357;-72
2022/01/06 02:54:22;;;;;;;13.97;9.93;;;1.40;99.90;;;;;;5094472;28;20197;-72
2022/01/06 02:56:49;;;;;;;15.60;9.57;;;1.40;99.90;;;;;;5094180;28;20312;-70
2022/01/06 02:59:16;;;;;;;13.53;9.20;;;1.40;99.90;;;;;;5094466;28;20267;-72
2022/01/06 03:01:44;;;;;;;16.10;9.47;;;1.40;99.90;;;;;;5096434;28;20278;-71
2022/01/06 03:04:12;;;;;;;14.73;10.33;;;1.40;99.90;;;;;;5096282;28;20224;-71
2022/01/06 03:06:39;;;;;;;15.73;9.60;;;1.30;99.90;;;;;;5096532;28;20200;-71
2022/01/06 03:09:07;;;;;;;22.10;10.47;;;1.30;99.90;;;;;;5095716;28;20655;-71
2022/01/06 03:11:40;;;;;;;18.47;9.97;;;1.30;99.90;;;;;;5095510;28;20209;-71
2022/01/06 03:14:09;;;;;;;18.53;9.40;;;1.30;99.90;;;;;;5096087;28;20257;-71
2022/01/06 03:16:36;;;;;;;17.60;10.33;;;1.20;99.90;;;;;;5098315;28;20249;-71
2022/01/06 03:19:03;;;;;;;15.53;10.37;;;1.30;99.90;;;;;;5098076;28;20200;-71
2022/01/06 03:21:30;;;;;;;20.13;11.43;;;1.30;99.90;;;;;;5097934;28;20203;-71
2022/01/06 03:23:56;;;;;;;16.77;10.43;;;1.30;99.90;;;;;;5098097;28;20216;-71
2022/01/06 03:26:23;;;;;;;16.13;10.50;;;1.20;99.90;;;;;;5098435;28;20196;-70
2022/01/06 03:28:51;;;;;;;20.63;10.70;;;1.20;99.90;;;;;;5104183;28;20200;-70
2022/01/06 03:31:18;;;;;;;19.70;12.10;;;1.20;99.90;;;;;;5098017;28;20200;-70
2022/01/06 03:33:45;;;;;;;21.50;12.17;;;1.10;99.90;;;;;;5098444;28;20192;-69
2022/01/06 03:36:11;;;;;;;20.10;11.67;;;1.00;99.90;;;;;;5098993;28;20208;-71
2022/01/06 03:38:38;;;;;;;20.10;10.90;;;1.00;99.90;;;;;;5097820;28;20648;-71
2022/01/06 03:41:05;;;;;;;21.77;11.70;;;1.00;99.90;;;;;;5097727;28;20265;-71
2022/01/06 03:43:31;;;;;;;17.33;11.73;;;1.00;99.90;;;;;;5098778;28;20200;-71
2022/01/06 03:45:59;;;;;;;19.13;11.57;;;1.00;99.90;;;;;;5099598;28;20196;-71
2022/01/06 03:48:26;;;;;;;17.13;11.17;;;1.00;99.90;;;;;;5099117;28;20204;-71
2022/01/06 03:50:53;;;;;;;18.47;11.50;;;1.00;99.90;;;;;;5099072;28;20200;-71
2022/01/06 03:53:19;;;;;;;14.33;11.50;;;1.00;99.90;;;;;;5098638;28;20207;-71
2022/01/06 03:55:46;;;;;;;19.57;12.07;;;1.10;99.90;;;;;;5098502;28;20598;-71
2022/01/06 03:58:12;;;;;;;21.07;11.50;;;1.10;99.90;;;;;;5098111;28;20197;-71
2022/01/06 04:00:39;;;;;;;18.97;11.47;;;1.10;99.90;;;;;;5097497;28;20261;-70
2022/01/06 04:03:07;;;;;;;17.93;11.60;;;1.10;99.90;;;;;;5097387;28;20278;-70
2022/01/06 04:05:34;;;;;;;20.43;11.87;;;1.10;99.90;;;;;;5097214;28;20224;-70
2022/01/06 04:08:01;;;;;;;14.70;10.10;;;1.10;99.90;;;;;;5097115;28;20193;-70
2022/01/06 04:10:28;;;;;;;13.27;10.33;;;1.20;99.90;;;;;;5097106;28;20192;-70
2022/01/06 04:12:55;;;;;;;17.53;10.80;;;1.20;99.90;;;;;;5097081;28;20249;-70
2022/01/06 04:15:24;;;;;;;16.00;9.80;;;1.20;99.90;;;;;;5097660;28;20242;-70
2022/01/06 04:17:50;;;;;;;19.43;10.27;;;1.20;99.90;;;;;;5096958;28;20279;-70
2022/01/06 04:20:19;;;;;;;15.47;10.30;;;1.20;99.90;;;;;;5096817;28;20201;-70
2022/01/06 04:22:45;;;;;;;16.63;10.47;;;1.20;99.90;;;;;;5100190;28;20253;-70
2022/01/06 04:25:13;;;;;;;15.83;11.20;;;1.20;99.90;;;;;;5096468;28;20223;-70
2022/01/06 04:27:40;;;;;;;15.20;10.17;;;1.20;99.90;;;;;;5096434;28;20245;-70
2022/01/06 04:30:09;;;;;;;17.57;11.13;;;1.20;99.90;;;;;;5096643;28;20196;-70
2022/01/06 04:32:36;;;;;;;16.03;10.60;;;1.10;99.90;;;;;;5096386;28;20222;-70
2022/01/06 04:35:05;;;;;;;16.10;10.10;;;1.20;99.90;;;;;;5096779;28;20254;-70
2022/01/06 04:37:33;;;;;;;17.23;10.87;;;1.10;99.90;;;;;;5096373;28;20196;-70
2022/01/06 04:39:59;;;;;;;18.47;11.97;;;1.00;99.90;;;;;;5096371;28;20204;-70
2022/01/06 04:42:26;;;;;;;15.93;11.03;;;0.90;99.90;;;;;;5095974;28;20237;-70
2022/01/06 04:44:53;;;;;;;15.97;10.20;;;0.90;99.90;;;;;;5096187;28;20231;-70
2022/01/06 04:47:20;;;;;;;14.33;10.83;;;0.80;99.90;;;;;;5096369;28;20286;-70
2022/01/06 04:49:46;;;;;;;18.77;10.77;;;0.80;99.90;;;;;;5096199;28;20192;-70
2022/01/06 04:52:13;;;;;;;17.23;10.40;;;0.80;99.90;;;;;;5095881;28;20273;-70
2022/01/06 04:54:41;;;;;;;15.23;10.53;;;0.70;99.90;;;;;;5095530;28;20741;-70
2022/01/06 04:57:08;;;;;;;17.17;10.80;;;0.70;99.90;;;;;;5096297;28;20214;-70
2022/01/06 04:59:34;;;;;;;20.70;11.77;;;0.70;99.90;;;;;;5102335;28;20200;-70
2022/01/06 05:02:01;;;;;;;21.07;10.90;;;0.80;99.90;;;;;;5100656;28;20258;-70
2022/01/06 05:04:28;;;;;;;16.87;10.40;;;0.90;99.90;;;;;;5097255;28;20220;-70
2022/01/06 05:06:54;;;;;;;15.00;9.77;;;0.90;99.90;;;;;;5099412;28;20230;-70
2022/01/06 05:09:21;;;;;;;17.90;10.60;;;0.90;99.90;;;;;;5099708;28;20196;-70
2022/01/06 05:11:49;;;;;;;19.97;10.20;;;1.00;99.90;;;;;;5097575;28;20253;-70
2022/01/06 05:14:16;;;;;;;19.90;10.77;;;0.90;99.90;;;;;;5098508;28;20204;-70
2022/01/06 05:16:42;;;;;;;15.67;10.70;;;0.90;99.90;;;;;;5098780;28;20204;-70
2022/01/06 05:19:09;;;;;;;20.80;10.67;;;0.90;99.90;;;;;;5099828;28;20265;-70
2022/01/06 05:21:36;;;;;;;17.47;10.77;;;0.90;99.90;;;;;;5097896;28;20652;-70
2022/01/06 05:24:10;;;;;;;18.07;10.00;;;0.90;99.90;;;;;;5099132;28;20196;-70
2022/01/06 05:26:38;;;;;;;19.40;10.23;;;0.90;99.90;;;;;;5097820;28;20188;-70
2022/01/06 05:29:06;;;;;;;20.10;10.93;;;0.90;99.90;;;;;;5097663;28;20610;-70
2022/01/06 05:31:33;;;;;;;18.83;11.33;;;0.80;99.90;;;;;;5098286;28;20196;-70
2022/01/06 05:33:59;;;;;;;16.30;10.10;;;0.80;99.90;;;;;;5098103;28;20196;-70
2022/01/06 05:36:26;;;;;;;21.07;10.03;;;0.80;99.90;;;;;;5096981;28;20261;-70
2022/01/06 05:38:53;;;;;;;20.53;11.37;;;0.90;99.90;;;;;;5098390;28;20196;-70
2022/01/06 05:41:23;;;;;;;19.90;10.27;;;0.80;99.90;;;;;;5098133;28;20257;-70
2022/01/06 05:43:50;;;;;;;19.03;10.60;;;0.70;99.90;;;;;;5098394;28;20200;-71
2022/01/06 05:46:19;;;;;;;17.00;11.50;;;0.70;99.90;;;;;;5099005;28;20228;-70
2022/01/06 05:48:46;;;;;;;16.27;10.27;;;0.70;99.90;;;;;;5097998;28;20640;-69
2022/01/06 05:51:14;;;;;;;16.70;10.37;;;0.60;99.90;;;;;;5097133;28;20246;-71
2022/01/06 05:53:41;;;;;;;20.50;10.73;;;0.70;99.90;;;;;;5097229;28;20200;-71
2022/01/06 05:56:08;;;;;;;19.70;10.53;;;0.70;99.90;;;;;;5097155;28;20196;-70
2022/01/06 05:58:35;;;;;;;17.57;10.33;;;0.80;99.90;;;;;;5096664;28;20295;-70
2022/01/06 06:01:02;;;;;;;21.77;10.40;;;0.80;99.90;;;;;;5097772;28;20250;-70
2022/01/06 06:03:30;;;;;;;22.83;11.57;;;0.90;99.90;;;;;;5098136;28;20204;-70
2022/01/06 06:05:56;;;;;;;21.80;10.40;;;0.90;99.90;;;;;;5097943;28;20232;-70
2022/01/06 06:08:23;;;;;;;19.03;10.43;;;0.70;99.90;;;;;;5098420;28;20651;-70
2022/01/06 06:10:50;;;;;;;24.70;10.80;;;0.80;99.90;;;;;;5098218;28;20663;-70
2022/01/06 06:13:16;;;;;;;15.90;9.23;;;0.80;99.90;;;;;;5098505;28;20196;-71
2022/01/06 06:15:43;;;;;;;19.60;9.67;;;0.80;99.90;;;;;;5098089;28;20226;-70
2022/01/06 06:18:12;;;;;;;20.53;10.53;;;0.70;99.90;;;;;;5098401;28;20196;-70
2022/01/06 06:20:40;;;;;;;16.90;9.30;;;0.60;99.90;;;;;;5097670;28;20215;-70
2022/01/06 06:23:07;;;;;;;18.53;10.17;;;0.70;99.90;;;;;;5097202;28;20193;-70
2022/01/06 06:25:34;;;;;;;15.43;8.97;;;0.60;99.90;;;;;;5097223;28;20268;-70
2022/01/06 06:28:02;;;;;;;20.50;10.00;;;0.60;99.90;;;;;;5097374;28;20192;-69
2022/01/06 06:30:28;;;;;;;21.90;10.47;;;0.50;99.90;;;;;;5097336;28;20200;-70
2022/01/06 06:32:55;;;;;;;19.90;10.87;;;0.50;99.90;;;;;;5095463;28;20204;-70
2022/01/06 06:35:22;;;;;;;19.13;10.93;;;0.50;99.90;;;;;;5094130;28;20204;-69
2022/01/06 06:37:50;;;;;;;24.83;10.83;;;0.40;99.90;;;;;;5094049;28;20197;-69
2022/01/06 06:40:19;;;;;;;21.03;10.80;;;0.40;99.90;;;;;;5094485;28;20196;-69
2022/01/06 06:42:46;;;;;;;17.50;10.37;;;0.40;99.90;;;;;;5093836;28;20243;-69
2022/01/06 06:45:14;;;;;;;19.60;10.93;;;0.40;99.90;;;;;;5094072;28;20253;-69
2022/01/06 06:47:41;;;;;;;25.23;13.47;;;0.50;99.90;;;;;;5093919;28;20200;-69
2022/01/06 06:50:08;;;;;;;18.00;11.30;;;0.60;99.90;;;;;;5094123;28;20196;-70
2022/01/06 06:52:35;;;;;;;21.13;10.33;;;0.60;99.90;;;;;;5093964;28;20200;-69
2022/01/06 06:55:04;;;;;;;18.87;10.67;;;0.60;99.90;;;;;;5093787;28;20204;-70
2022/01/06 06:57:30;;;;;;;19.67;10.27;;;0.60;99.90;;;;;;5093732;28;20200;-70
2022/01/06 07:00:02;;;;;;;17.03;10.97;;;0.60;99.90;;;;;;5094325;28;20196;-70
2022/01/06 07:02:29;;;;;;;21.50;11.13;;;0.60;99.90;;;;;;5094209;28;20319;-70
2022/01/06 07:04:55;;;;;;;23.00;10.60;;;0.60;99.90;;;;;;5094070;28;20204;-70
2022/01/06 07:07:22;;;;;;;22.83;11.00;;;0.60;99.90;;;;;;5094082;28;20200;-70
2022/01/06 07:09:49;;;;;;;16.77;10.20;;;0.60;99.90;;;;;;5097590;28;20196;-70
2022/01/06 07:12:17;;;;;;;17.07;9.90;;;0.70;99.90;;;;;;5093871;28;20196;-70
2022/01/06 07:14:43;;;;;;;18.37;10.07;;;0.70;99.90;;;;;;5094167;28;20265;-70
2022/01/06 07:17:10;;;;;;;15.80;9.60;;;0.80;99.90;;;;;;5093476;28;20772;-70
2022/01/06 07:19:37;;;;;;;19.50;9.37;;;0.80;99.90;;;;;;5093629;28;20721;-70
2022/01/06 07:22:04;;;;;;;20.33;9.83;;;0.80;99.90;;;;;;5093616;28;20196;-70
2022/01/06 07:24:31;;;;;;;19.03;9.77;;;0.80;99.90;;;;;;5093591;28;20246;-70
2022/01/06 07:26:58;;;;;;;18.57;8.87;;;0.90;99.90;;;;;;5093690;28;20282;-70
2022/01/06 07:29:26;;;;;;;18.20;9.17;;;0.90;99.90;;;;;;5093462;28;20193;-70
2022/01/06 07:31:52;;;;;;;18.30;9.10;;;1.00;99.90;;;;;;5093919;28;20193;-70
2022/01/06 07:34:19;;;;;;;19.10;9.47;;;1.00;99.90;;;;;;5093785;28;20258;-70
2022/01/06 07:36:46;;;;;;;18.87;9.00;;;1.00;99.90;;;;;;5093483;28;20529;-70
2022/01/06 07:39:13;;;;;;;16.33;9.00;;;1.10;99.90;;;;;;5093596;28;20200;-70
2022/01/06 07:41:39;;;;;;;15.57;8.63;;;1.10;99.90;;;;;;5093638;28;20196;-70
2022/01/06 07:44:07;;;;;;;13.87;8.37;;;1.10;99.90;;;;;;5093817;28;20261;-69
2022/01/06 07:46:35;;;;;;;14.17;8.40;;;1.10;99.90;;;;;;5093442;28;20224;-69
2022/01/06 07:49:02;;;;;;;21.17;9.37;;;1.20;99.90;;;;;;5093171;28;20200;-69
2022/01/06 07:51:31;;;;;;;18.53;8.00;;;1.20;99.90;;;;;;5093231;28;20200;-70
2022/01/06 07:53:59;;;;;;;17.20;8.23;;;1.20;99.90;;;;;;5093864;28;20245;-70
2022/01/06 07:56:26;;;;;;;16.67;7.73;;;1.20;99.90;;;;;;5093838;28;20341;-70
2022/01/06 07:58:53;;;;;;;12.93;7.30;;;1.20;99.90;;;;;;5093196;28;20223;-70
2022/01/06 08:01:20;;;;;;;11.40;7.40;;;1.20;99.90;;;;;;5096555;28;20576;-70
2022/01/06 08:03:48;;;;;;;14.40;7.77;;;1.30;99.90;;;;;;5099611;28;20294;-71
2022/01/06 08:06:15;;;;;;;16.03;7.97;;;1.30;99.90;;;;;;5098500;28;20273;-70
2022/01/06 08:08:43;;;;;;;18.80;8.17;;;1.30;99.90;;;;;;5097828;28;20200;-70
2022/01/06 08:11:10;;;;;;;19.83;7.80;;;1.30;99.90;;;;;;5097403;28;20246;-70
2022/01/06 08:13:37;;;;;;;16.50;7.87;;;1.30;99.90;;;;;;5097206;28;20226;-70
2022/01/06 08:16:04;;;;;;;16.77;8.20;;;1.40;99.90;;;;;;5096691;28;20204;-71
2022/01/06 08:18:31;;;;;;;13.70;8.07;;;1.40;99.90;;;;;;5096704;28;20204;-70
2022/01/06 08:20:59;;;;;;;13.93;7.53;;;1.40;99.90;;;;;;5096753;28;20200;-69
2022/01/06 08:23:26;;;;;;;14.23;7.20;;;1.50;99.90;;;;;;5096848;28;20254;-71
2022/01/06 08:25:52;;;;;;;16.13;8.20;;;1.50;99.90;;;;;;5096371;28;20220;-70
2022/01/06 08:28:19;;;;;;;17.63;7.33;;;1.60;99.90;;;;;;5097395;28;20203;-70
2022/01/06 08:30:46;;;;;;;12.00;7.10;;;1.60;99.90;;;;;;5096590;28;20200;-70
2022/01/06 08:33:12;;;;;;;9.67;6.77;;;1.60;99.90;;;;;;5096573;28;20227;-70
2022/01/06 08:35:39;;;;;;;13.77;7.17;;;1.60;99.90;;;;;;5100056;28;20200;-70
2022/01/06 08:38:07;;;;;;;14.47;7.20;;;1.60;99.90;;;;;;5101462;28;20200;-69
2022/01/06 08:40:34;;;;;;;17.27;8.03;;;1.60;99.90;;;;;;5101166;28;20196;-70
2022/01/06 08:43:01;;;;;;;16.20;7.67;;;1.70;99.90;;;;;;5101213;28;20261;-70
2022/01/06 08:45:30;;;;;;;12.03;6.93;;;1.80;99.90;;;;;;5100157;28;20329;-70
2022/01/06 08:47:57;;;;;;;13.53;6.27;;;1.80;99.90;;;;;;5100622;28;20686;-71
2022/01/06 08:50:23;;;;;;;18.23;10.67;;;1.80;99.90;;;;;;5097978;28;20197;-70
2022/01/06 08:52:51;;;;;;;17.07;7.57;;;1.80;99.90;;;;;;5097478;28;20249;-71
2022/01/06 08:55:19;;;;;;;17.20;8.53;;;1.80;99.90;;;;;;5097031;28;20699;-71
2022/01/06 08:57:45;;;;;;;19.77;7.30;;;1.80;99.90;;;;;;5096768;28;20192;-71
2022/01/06 09:00:13;;;;;;;14.90;6.90;;;1.90;99.90;;;;;;5099062;28;20200;-70
2022/01/06 09:02:39;;;;;;;10.43;6.23;;;1.80;99.90;;;;;;5095987;28;20228;-70
2022/01/06 09:05:06;;;;;;;15.47;7.40;;;1.80;99.90;;;;;;5096046;28;20656;-71
2022/01/06 09:07:34;;;;;;;20.10;10.50;;;1.90;99.90;;;;;;5096120;28;20583;-71
2022/01/06 09:10:00;;;;;;;28.63;12.50;;;1.90;99.90;;;;;;5096119;28;20200;-71
2022/01/06 09:12:28;;;;;;;20.87;9.73;;;2.00;99.90;;;;;;5095379;28;20604;-70
2022/01/06 09:14:55;;;;;;;16.40;7.70;;;2.00;99.90;;;;;;5095132;28;20208;-70
2022/01/06 09:17:22;;;;;;;11.30;5.83;;;2.10;99.90;;;;;;5095377;28;20204;-71
2022/01/06 09:19:48;;;;;;;11.93;6.53;;;2.10;99.90;;;;;;5095273;28;20222;-70
2022/01/06 09:22:15;;;;;;;11.27;5.97;;;2.00;99.90;;;;;;5095103;28;20196;-71
2022/01/06 09:24:42;;;;;;;13.53;6.50;;;2.10;99.90;;;;;;5095390;28;20192;-70
2022/01/06 09:27:08;;;;;;;15.30;7.27;;;2.00;99.90;;;;;;5108079;28;20223;-71
2022/01/06 09:29:36;;;;;;;14.10;5.90;;;2.10;99.90;;;;;;5115273;28;20200;-70
2022/01/06 09:32:04;;;;;;;11.90;7.17;;;2.10;99.90;;;;;;5115988;28;20199;-70
2022/01/06 09:34:30;;;;;;;14.43;7.00;;;2.20;99.90;;;;;;5115740;28;20207;-71
2022/01/06 09:36:57;;;;;;;14.17;6.47;;;2.20;99.90;;;;;;5115489;28;20203;-71
2022/01/06 09:39:24;;;;;;;11.83;6.07;;;2.20;99.90;;;;;;5115868;28;20221;-71
2022/01/06 09:41:50;;;;;;;10.43;6.20;;;2.20;99.90;;;;;;5115796;28;20192;-71
2022/01/06 09:44:18;;;;;;;11.47;7.27;;;2.20;99.90;;;;;;5115858;28;20252;-71
2022/01/06 09:46:47;;;;;;;15.67;7.00;;;2.20;99.90;;;;;;5115354;28;20272;-71
2022/01/06 09:49:14;;;;;;;20.23;8.67;;;2.30;99.90;;;;;;5115624;28;20204;-71
2022/01/06 09:51:40;;;;;;;15.10;9.70;;;2.30;99.90;;;;;;5116207;28;20609;-72
2022/01/06 09:54:07;;;;;;;12.50;7.57;;;2.30;99.90;;;;;;5117943;28;20627;-72
2022/01/06 09:56:35;;;;;;;16.57;6.57;;;2.30;99.90;;;;;;5116817;28;20203;-71
2022/01/06 09:59:03;;;;;;;15.20;6.37;;;2.40;99.90;;;;;;5114562;28;20290;-71
2022/01/06 10:01:30;;;;;;;14.83;6.53;;;2.30;99.90;;;;;;5114865;28;20253;-72
2022/01/06 10:03:58;;;;;;;14.63;6.07;;;2.30;99.90;;;;;;5114002;28;20248;-72
2022/01/06 10:06:27;;;;;;;12.83;5.37;;;2.40;99.90;;;;;;5114421;28;20223;-71
2022/01/06 10:08:57;;;;;;;10.00;5.43;;;2.50;99.90;;;;;;5113301;28;20200;-72
2022/01/06 10:11:26;;;;;;;15.20;6.23;;;2.60;99.90;;;;;;5112264;28;20276;-71
2022/01/06 10:13:59;;;;;;;10.43;5.37;;;2.60;99.90;;;;;;5112033;28;20692;-71
2022/01/06 10:16:29;;;;;;;8.53;5.23;;;2.80;99.90;;;;;;5112449;28;20271;-70
2022/01/06 10:19:00;;;;;;;12.30;5.03;;;2.80;99.90;;;;;;5112361;28;20206;-71
2022/01/06 10:21:31;;;;;;;8.47;5.00;;;2.70;99.90;;;;;;5112489;28;20655;-72
2022/01/06 10:24:00;;;;;;;11.80;5.03;;;2.70;99.90;;;;;;5112590;28;20196;-72
2022/01/06 10:26:27;;;;;;;12.10;4.50;;;2.80;99.90;;;;;;5094355;28;20249;-72
2022/01/06 10:28:54;;;;;;;10.60;4.60;;;2.70;99.90;;;;;;5092087;28;20307;-72
2022/01/06 10:31:24;;;;;;;9.07;4.40;;;2.80;99.90;;;;;;5091884;28;20250;-72
2022/01/06 10:33:51;;;;;;;13.87;4.97;;;2.70;99.90;;;;;;5092351;28;20257;-72
2022/01/06 10:36:26;;;;;;;14.80;5.07;;;2.60;99.90;;;;;;5092242;28;20295;-72
2022/01/06 10:38:54;;;;;;;8.87;5.30;;;2.60;99.90;;;;;;5093371;28;20848;-72
2022/01/06 10:41:21;;;;;;;12.10;5.70;;;2.40;99.90;;;;;;5095394;28;20224;-71
2022/01/06 10:43:51;;;;;;;16.57;6.60;;;2.40;99.90;;;;;;5094023;28;20201;-71
2022/01/06 10:46:28;;;;;;;16.83;5.80;;;2.50;99.90;;;;;;5093750;28;20216;-71
2022/01/06 10:48:58;;;;;;;14.90;6.17;;;2.70;99.90;;;;;;5094623;28;20289;-71
2022/01/06 10:51:34;;;;;;;11.73;5.73;;;2.80;99.90;;;;;;5096234;28;20742;-73
2022/01/06 10:54:01;;;;;;;17.87;6.80;;;2.70;99.90;;;;;;5099003;28;20717;-72
2022/01/06 10:56:28;;;;;;;17.20;6.07;;;2.80;99.90;;;;;;5101000;28;20226;-73
2022/01/06 10:58:57;;;;;;;9.77;5.63;;;2.80;99.90;;;;;;5092983;28;20280;-72
2022/01/06 11:01:24;;;;;;;15.13;6.20;;;2.70;99.90;;;;;;5095383;28;20232;-73
2022/01/06 11:03:50;;;;;;;15.97;5.37;;;2.70;99.90;;;;;;5097595;28;20211;-71
2022/01/06 11:06:17;;;;;;;14.07;5.73;;;2.80;99.90;;;;;;5094039;28;20306;-73
2022/01/06 11:08:46;;;;;;;11.93;4.87;;;3.10;99.90;;;;;;5094039;28;20201;-71
2022/01/06 11:11:31;;;;;;;12.77;4.80;;;3.40;99.90;;;;;;5093575;28;20222;-72
2022/01/06 11:13:58;;;;;;;14.80;6.00;;;3.40;99.90;;;;;;5093381;28;20677;-72
2022/01/06 11:16:24;;;;;;;10.53;4.80;;;3.60;99.90;;;;;;5093508;28;20206;-72
2022/01/06 11:18:53;;;;;;;11.73;5.13;;;3.70;99.90;;;;;;5093562;28;20202;-72
2022/01/06 11:21:23;;;;;;;13.77;5.77;;;3.60;99.90;;;;;;5093890;28;20197;-72
2022/01/06 11:24:03;;;;;;;11.53;4.93;;;3.50;99.90;;;;;;5093564;28;20202;-73
2022/01/06 11:26:29;;;;;;;12.60;5.10;;;3.50;99.90;;;;;;5093928;28;20342;-73
2022/01/06 11:28:59;;;;;;;10.47;4.67;;;3.40;99.90;;;;;;5094156;28;20202;-73
2022/01/06 11:31:27;;;;;;;11.07;4.73;;;3.30;99.90;;;;;;5093805;28;20687;-73
2022/01/06 11:33:56;;;;;;;11.87;4.67;;;3.40;99.90;;;;;;5094087;28;20659;-74
2022/01/06 11:36:26;;;;;;;11.33;5.33;;;3.40;99.90;;;;;;5098217;28;20202;-73
2022/01/06 11:38:54;;;;;;;12.60;4.40;;;3.40;99.90;;;;;;5098097;28;20675;-74
2022/01/06 11:41:26;;;;;;;8.33;3.87;;;3.50;99.90;;;;;;5098557;28;20199;-74
2022/01/06 11:43:57;;;;;;;9.57;4.47;;;3.70;99.90;;;;;;5098512;28;20326;-73
2022/01/06 11:46:23;;;;;;;13.53;4.43;;;3.70;99.90;;;;;;5100324;28;20567;-72
2022/01/06 11:48:52;;;;;;;12.90;4.43;;;3.70;99.90;;;;;;5097754;28;20200;-72
2022/01/06 11:51:27;;;;;;;12.80;6.00;;;3.50;99.90;;;;;;5098189;28;20242;-72
2022/01/06 11:53:54;;;;;;;14.33;5.17;;;3.50;99.90;;;;;;5100449;28;20263;-73
2022/01/06 11:56:23;;;;;;;10.77;4.20;;;3.50;99.90;;;;;;5097839;28;20202;-72
2022/01/06 11:59:01;;;;;;;16.13;7.43;;;3.50;99.90;;;;;;5097623;28;20692;-72
2022/01/06 12:01:28;;;;;;;13.00;5.57;;;3.50;99.90;;;;;;5097421;28;20232;-72
2022/01/06 12:03:55;;;;;;;10.60;4.83;;;3.50;99.90;;;;;;5097861;28;20258;-72
2022/01/06 12:06:25;;;;;;;11.13;4.50;;;3.50;99.90;;;;;;5097498;28;20198;-72
2022/01/06 12:08:52;;;;;;;9.67;4.23;;;3.50;99.90;;;;;;5097607;28;20202;-72
2022/01/06 12:11:26;;;;;;;10.30;4.50;;;3.40;99.90;;;;;;5099792;28;20215;-72
2022/01/06 12:13:55;;;;;;;7.77;4.13;;;3.50;99.90;;;;;;5105209;28;20195;-72
2022/01/06 12:16:27;;;;;;;10.13;4.23;;;3.60;99.90;;;;;;5104958;28;20216;-71
2022/01/06 12:18:54;;;;;;;7.17;3.20;;;3.70;99.90;;;;;;5105155;28;20200;-73
2022/01/06 12:21:22;;;;;;;11.27;3.33;;;3.70;99.90;;;;;;5105454;28;20249;-70
2022/01/06 12:23:59;;;;;;;10.93;4.10;;;3.50;99.90;;;;;;5106232;28;20200;-74
2022/01/06 12:26:27;;;;;;;8.27;3.70;;;3.60;99.90;;;;;;5107223;28;20251;-72
2022/01/06 12:28:54;;;;;;;11.87;4.37;;;3.60;99.90;;;;;;5096357;28;20660;-71
2022/01/06 12:31:23;;;;;;;7.53;3.60;;;3.60;99.90;;;;;;5096509;28;20253;-71
2022/01/06 12:36:34;;;;;;;9.47;4.00;;;3.70;99.90;;;;;;5125632;22;20241;-71
2022/01/06 12:39:07;;;;;;;8.83;4.23;;;3.60;99.90;;;;;;5015433;28;20205;-72
2022/01/06 12:41:35;;;;;;;10.80;4.53;;;4.10;99.90;;;;;;5021137;28;20219;-72
2022/01/06 12:44:02;;;;;;;9.03;4.97;;;8.10;99.90;;;;;;5016028;28;20206;-72
2022/01/06 12:46:34;;;;;;;10.20;3.93;;;8.90;99.90;;;;;;5018750;28;20202;-73
2022/01/06 12:49:01;;;;;;;8.00;2.80;;;10.10;99.90;;;;;;5016083;28;20203;-72
2022/01/06 12:51:30;;;;;;;6.80;3.57;;;8.10;99.90;;;;;;5016177;28;20202;-73
2022/01/06 12:54:01;;;;;;;6.20;3.67;;;8.40;99.90;;;;;;5015871;28;20203;-73
2022/01/06 12:56:30;;;;;;;12.57;5.83;;;8.90;99.90;;;;;;5015760;28;20199;-73
2022/01/06 12:58:59;;;;;;;10.40;6.00;;;7.70;99.90;;;;;;5016150;28;20195;-73